createdAt,value
2023-01-17T00:00:07.335Z,34.60
2023-01-17T00:02:35.655Z,37.38
2023-01-17T00:05:23.013Z,35.70
2023-01-17T00:08:20.216Z,34.63
2023-01-17T00:10:48.857Z,35.67
2023-01-17T00:13:17.506Z,33.78
2023-01-17T00:15:46.043Z,34.88
2023-01-17T00:18:14.174Z,35.17
2023-01-17T00:21:01.173Z,35.90
2023-01-17T00:23:47.537Z,33.25
2023-01-17T00:26:20.257Z,34.60
2023-01-17T00:28:49.528Z,35.45
2023-01-17T00:31:17.893Z,36.60
2023-01-17T00:33:46.472Z,35.72
2023-01-17T00:36:14.593Z,36.63
2023-01-17T00:38:42.586Z,36.50
2023-01-17T00:41:13.183Z,35.20
2023-01-17T00:44:00.960Z,36.55
2023-01-17T00:49:34.131Z,34.65
2023-01-17T00:52:20.813Z,37.55
2023-01-17T00:55:07.299Z,35.67
2023-01-17T00:57:53.823Z,34.25
2023-01-17T01:00:41.085Z,35.77
2023-01-17T01:03:30.533Z,34.28
2023-01-17T01:06:17.544Z,35.78
2023-01-17T01:09:04.418Z,36.53
2023-01-17T01:11:51.011Z,35.50
2023-01-17T01:14:37.893Z,35.50
2023-01-17T01:17:24.429Z,37.72
2023-01-17T01:20:10.911Z,35.65
2023-01-17T01:22:57.548Z,38.13
2023-01-17T01:25:43.949Z,36.80
2023-01-17T01:28:32.475Z,37.20
2023-01-17T01:31:23.567Z,37.97
2023-01-17T01:33:53.307Z,37.72
2023-01-17T01:36:22.058Z,37.03
2023-01-17T01:38:50.631Z,36.28
2023-01-17T01:41:19.065Z,36.38
2023-01-17T01:43:52.474Z,38.47
2023-01-17T01:46:25.939Z,37.85
2023-01-17T01:49:02.626Z,36.15
2023-01-17T01:51:39.180Z,36.08
2023-01-17T01:54:21.909Z,35.20
2023-01-17T01:56:54.679Z,33.10
2023-01-17T01:59:23.777Z,34.97
2023-01-17T02:01:56.408Z,35.03
2023-01-17T02:04:26.821Z,32.53
2023-01-17T02:07:22.500Z,35.03
2023-01-17T02:09:50.582Z,33.13
2023-01-17T02:12:20.397Z,35.17
2023-01-17T02:14:48.988Z,33.35
2023-01-17T02:17:28.969Z,33.50
2023-01-17T02:20:09.050Z,33.83
2023-01-17T02:23:14.441Z,34.20
2023-01-17T02:25:59.980Z,34.80
2023-01-17T02:28:40.259Z,32.85
2023-01-17T02:31:27.181Z,33.80
2023-01-17T02:34:07.406Z,35.35
2023-01-17T02:37:03.444Z,36.63
2023-01-17T02:39:49.174Z,34.33
2023-01-17T02:42:20.472Z,32.97
2023-01-17T02:44:48.845Z,33.05
2023-01-17T02:47:30.507Z,32.92
2023-01-17T02:50:15.559Z,32.95
2023-01-17T02:53:04.049Z,30.90
2023-01-17T02:55:38.460Z,32.92
2023-01-17T02:58:25.012Z,33.88
2023-01-17T03:01:17.648Z,33.80
2023-01-17T03:03:58.923Z,32.55
2023-01-17T03:06:41.898Z,32.20
2023-01-17T03:09:10.882Z,33.75
2023-01-17T03:11:39.032Z,31.35
2023-01-17T03:14:07.141Z,30.95
2023-01-17T03:16:35.420Z,31.50
2023-01-17T03:19:04.354Z,29.48
2023-01-17T03:21:32.988Z,32.63
2023-01-17T03:24:01.097Z,31.85
2023-01-17T03:26:29.859Z,32.08
2023-01-17T03:28:58.784Z,31.52
2023-01-17T03:31:27.069Z,32.75
2023-01-17T03:33:55.348Z,31.60
2023-01-17T03:36:23.420Z,32.05
2023-01-17T03:38:52.052Z,31.25
2023-01-17T03:41:20.255Z,31.42
2023-01-17T03:43:48.362Z,30.63
2023-01-17T03:46:25.750Z,32.58
2023-01-17T03:48:54.023Z,32.47
2023-01-17T03:51:22.285Z,29.50
2023-01-17T03:53:51.118Z,31.10
2023-01-17T03:56:19.823Z,32.25
2023-01-17T03:58:48.110Z,30.23
2023-01-17T04:01:16.378Z,31.65
2023-01-17T04:03:44.943Z,32.53
2023-01-17T04:06:12.838Z,30.88
2023-01-17T04:08:40.688Z,29.75
2023-01-17T04:11:09.151Z,30.63
2023-01-17T04:13:37.361Z,28.67
2023-01-17T04:16:05.929Z,26.83
2023-01-17T04:18:34.472Z,26.27
2023-01-17T04:21:02.992Z,26.38
2023-01-17T04:23:31.599Z,28.52
2023-01-17T04:25:59.712Z,28.10
2023-01-17T04:28:27.874Z,25.83
2023-01-17T04:31:00.919Z,27.52
2023-01-17T04:33:29.505Z,26.05
2023-01-17T04:35:57.782Z,25.42
2023-01-17T04:38:25.978Z,24.08
2023-01-17T04:40:54.213Z,24.58
2023-01-17T04:43:22.868Z,24.05
2023-01-17T04:45:58.633Z,25.45
2023-01-17T04:48:27.719Z,25.13
2023-01-17T04:51:06.342Z,24.65
2023-01-17T04:53:34.313Z,25.27
2023-01-17T04:56:02.396Z,25.10
2023-01-17T04:58:31.044Z,25.83
2023-01-17T05:01:06.936Z,26.45
2023-01-17T05:03:35.440Z,27.13
2023-01-17T05:06:03.763Z,24.33
2023-01-17T05:08:31.763Z,26.33
2023-01-17T05:10:59.842Z,24.70
2023-01-17T05:13:27.869Z,24.38
2023-01-17T05:15:57.976Z,23.05
2023-01-17T05:18:26.621Z,23.48
2023-01-17T05:20:55.214Z,23.30
2023-01-17T05:23:23.292Z,21.85
2023-01-17T05:25:51.813Z,21.38
2023-01-17T05:28:20.412Z,23.15
2023-01-17T05:30:49.145Z,23.17
2023-01-17T05:33:17.503Z,22.52
2023-01-17T05:35:46.294Z,22.60
2023-01-17T17:25:35.836Z,17.23
2023-01-17T17:28:05.464Z,16.52
2023-01-17T17:30:33.793Z,19.73
2023-01-17T17:33:04.870Z,18.02
2023-01-17T17:35:35.995Z,17.02
2023-01-17T17:38:07.269Z,16.95
2023-01-17T17:40:36.594Z,17.20
2023-01-17T17:43:05.228Z,16.80
2023-01-17T17:45:33.765Z,16.13
2023-01-17T17:48:02.434Z,14.55
2023-01-17T17:50:31.121Z,15.18
2023-01-17T17:52:59.275Z,16.17
2023-01-17T17:55:29.280Z,14.32
2023-01-17T17:57:57.848Z,14.95
2023-01-17T18:00:26.249Z,14.85
2023-01-17T18:02:54.649Z,15.77
2023-01-17T18:05:22.824Z,14.77
2023-01-17T18:07:52.226Z,17.00
2023-01-17T18:10:20.581Z,16.15
2023-01-17T18:12:50.226Z,15.07
2023-01-17T18:15:19.546Z,13.82
2023-01-17T18:17:48.898Z,12.45
2023-01-17T18:20:17.475Z,12.30
2023-01-17T18:22:46.030Z,11.68
2023-01-17T18:25:14.738Z,11.85
2023-01-17T18:27:46.515Z,12.55
2023-01-17T18:30:14.957Z,11.38
2023-01-17T18:32:43.355Z,11.10
2023-01-17T18:35:12.108Z,11.05
2023-01-17T18:37:40.803Z,10.63
2023-01-17T18:40:10.090Z,10.27
2023-01-17T18:42:39.850Z,11.93
2023-01-17T18:45:08.564Z,11.80
2023-01-17T18:47:38.883Z,12.40
2023-01-17T18:50:07.771Z,12.90
2023-01-17T18:52:36.214Z,13.07
2023-01-17T18:55:05.591Z,14.40
2023-01-17T18:57:34.256Z,14.60
2023-01-17T19:00:03.169Z,11.98
2023-01-17T19:02:31.979Z,11.45
2023-01-17T19:05:02.586Z,11.07
2023-01-17T19:07:33.244Z,11.35
2023-01-17T19:10:02.106Z,10.65
2023-01-17T19:12:30.543Z,10.02
2023-01-17T19:14:58.742Z,10.23
2023-01-17T19:17:27.374Z,10.27
2023-01-17T19:19:57.101Z,10.90
2023-01-17T19:22:25.429Z,10.40
2023-01-17T19:24:54.092Z,10.38
2023-01-17T19:27:22.210Z,10.73
2023-01-17T19:29:50.891Z,10.48
2023-01-17T19:32:19.808Z,12.15
2023-01-17T19:34:48.129Z,11.30
2023-01-17T19:37:16.497Z,11.63
2023-01-17T19:39:45.932Z,12.18
2023-01-17T19:42:16.270Z,11.38
2023-01-17T19:44:44.773Z,10.48
2023-01-17T19:47:13.124Z,9.65
2023-01-17T19:49:43.158Z,10.98
2023-01-17T19:52:12.069Z,10.48
2023-01-17T19:54:41.773Z,11.23
2023-01-17T19:57:10.054Z,11.68
2023-01-17T19:59:38.374Z,12.25
2023-01-17T20:02:06.669Z,11.10
2023-01-17T20:04:35.119Z,11.20
2023-01-17T20:07:03.509Z,11.75
2023-01-17T20:09:32.233Z,11.73
2023-01-17T20:12:01.593Z,11.57
2023-01-17T20:14:30.281Z,10.38
2023-01-17T20:16:58.989Z,11.63
2023-01-17T20:19:27.839Z,10.63
2023-01-17T20:21:56.417Z,10.98
2023-01-17T20:24:24.553Z,9.82
2023-01-17T20:26:53.041Z,10.80
2023-01-17T20:29:21.383Z,10.45
2023-01-17T20:31:53.249Z,10.73
2023-01-17T20:34:21.799Z,10.65
2023-01-17T20:36:50.041Z,10.82
2023-01-17T20:39:19.832Z,10.57
2023-01-17T20:41:50.103Z,11.45
2023-01-17T20:44:19.986Z,11.48
2023-01-17T20:46:48.543Z,11.05
2023-01-17T20:49:19.818Z,12.30
2023-01-17T20:51:53.202Z,10.88
2023-01-17T20:54:27.180Z,11.18
2023-01-17T20:56:56.782Z,11.70
2023-01-17T20:59:25.057Z,11.45
2023-01-17T21:01:54.305Z,11.18
2023-01-17T21:04:26.397Z,12.20
2023-01-17T21:11:31.067Z,11.63
2023-01-17T21:17:48.129Z,11.55
2023-01-17T21:20:17.700Z,10.82
2023-01-17T21:22:45.872Z,11.35
2023-01-17T21:25:15.469Z,11.07
2023-01-17T21:27:44.443Z,11.07
2023-01-17T21:30:13.641Z,11.48
2023-01-17T21:36:48.407Z,11.65
2023-01-17T21:39:19.279Z,12.48
2023-01-17T21:41:49.890Z,12.52
2023-01-17T21:44:21.125Z,12.77
2023-01-17T21:46:56.256Z,12.90
2023-01-17T21:49:37.333Z,12.75
2023-01-17T21:52:05.407Z,13.75
2023-01-17T21:54:52.218Z,12.27
2023-01-17T22:00:27.143Z,12.05
2023-01-17T22:02:56.998Z,12.15
2023-01-17T22:05:28.651Z,12.43
2023-01-17T22:08:13.051Z,12.30
2023-01-17T22:10:45.586Z,13.52
2023-01-17T22:13:20.358Z,13.40
2023-01-17T22:15:59.237Z,12.88
2023-01-17T22:18:28.744Z,12.65
2023-01-17T22:20:57.943Z,12.73
2023-01-17T22:23:26.737Z,12.10
2023-01-17T22:26:01.666Z,12.95
2023-01-17T22:28:34.195Z,13.15
2023-01-17T22:31:21.307Z,13.95
2023-01-17T22:34:01.330Z,13.73
2023-01-17T22:36:32.004Z,14.52
2023-01-17T22:39:00.504Z,14.73
2023-01-17T22:41:32.055Z,15.15
2023-01-17T22:44:02.896Z,14.38
2023-01-17T22:46:33.398Z,16.75
2023-01-17T22:49:01.610Z,15.95
2023-01-17T22:51:30.207Z,17.02
2023-01-17T22:54:00.850Z,18.50
2023-01-17T22:56:32.349Z,15.43
2023-01-17T22:59:01.344Z,17.65
2023-01-17T23:01:32.931Z,19.25
2023-01-17T23:04:03.827Z,18.05
2023-01-17T23:06:37.762Z,19.10
2023-01-17T23:09:09.335Z,18.27
2023-01-17T23:11:44.210Z,19.92
2023-01-17T23:14:17.089Z,18.90
2023-01-17T23:17:05.613Z,19.58
2023-01-17T23:19:37.740Z,19.70
2023-01-17T23:22:20.776Z,20.08
2023-01-17T23:24:53.848Z,19.75
2023-01-17T23:27:51.003Z,20.88
2023-01-17T23:30:27.050Z,21.02
2023-01-17T23:32:59.127Z,20.58
2023-01-17T23:35:33.613Z,21.48
2023-01-17T23:38:21.013Z,22.00
2023-01-17T23:41:09.652Z,20.20
2023-01-17T23:43:38.418Z,20.90
2023-01-17T23:46:11.973Z,20.88
2023-01-17T23:48:40.277Z,22.77
2023-01-17T23:51:09.068Z,22.40
2023-01-17T23:53:39.154Z,21.70
2023-01-17T23:56:15.313Z,21.38
2023-01-17T23:58:43.468Z,20.93
